Time;durP1;ratioP1;P1;durP2;ratioP2;P2;SDS_P1;SDS_P2;PMS_P1;PMS_P2;Temp;Humidity;BMP_temperature;BMP_pressure;BME280_temperature;BME280_humidity;BME280_pressure;Samples;Min_cycle;Max_cycle;Signal;HPM_P1;HPM_P2
2021/03/02 00:01:41;;;;;;;47.45;18.17;;;;;;;-147.27;100.00;65176.34;4937841;29;20449;-59
2021/03/02 00:04:07;;;;;;;59.88;20.23;;;;;;;-147.27;100.00;65176.34;4937601;29;20171;-58
2021/03/02 00:06:34;;;;;;;47.45;19.23;;;;;;;-147.27;100.00;65176.34;4937824;29;20512;-59
2021/03/02 00:09:00;;;;;;;46.75;19.42;;;;;;;-147.27;100.00;65176.34;4937313;29;20047;-59
2021/03/02 00:11:26;;;;;;;50.08;19.70;;;;;;;-147.27;100.00;65176.34;4937777;29;20154;-60
2021/03/02 00:13:51;;;;;;;47.53;18.83;;;;;;;-147.27;100.00;65176.34;4936157;29;20206;-60
2021/03/02 00:16:24;;;;;;;49.50;20.13;;;;;;;-147.27;100.00;65176.34;4936815;29;20127;-59
2021/03/02 00:18:55;;;;;;;50.63;20.27;;;;;;;-147.27;100.00;65176.34;4937834;29;20377;-59
2021/03/02 00:21:29;;;;;;;53.85;18.95;;;;;;;-147.27;100.00;65176.34;4937846;29;20040;-59
2021/03/02 00:23:59;;;;;;;57.42;19.77;;;;;;;-147.27;100.00;65176.34;4937927;29;20082;-59
2021/03/02 00:26:31;;;;;;;47.95;19.48;;;;;;;-147.27;100.00;65176.34;4936349;29;20035;-60
2021/03/02 00:29:02;;;;;;;51.90;22.10;;;;;;;-147.27;100.00;65176.34;4935822;29;20075;-57
2021/03/02 00:31:31;;;;;;;58.55;20.77;;;;;;;-147.27;100.00;65176.34;4937795;29;20118;-59
2021/03/02 00:33:57;;;;;;;51.25;20.20;;;;;;;-147.27;100.00;65176.34;4937381;29;20035;-60
2021/03/02 00:36:22;;;;;;;52.40;19.45;;;;;;;-147.27;100.00;65176.34;4936079;29;20050;-60
2021/03/02 00:38:48;;;;;;;60.47;19.83;;;;;;;-147.27;100.00;65176.34;4937344;29;20055;-59
2021/03/02 00:41:13;;;;;;;58.37;20.07;;;;;;;-147.27;100.00;65176.34;4936295;29;20468;-59
2021/03/02 00:43:39;;;;;;;59.43;23.20;;;;;;;-147.27;100.00;65176.34;4920158;29;20044;-59
2021/03/02 00:46:04;;;;;;;52.07;20.00;;;;;;;-147.27;100.00;65176.34;4935126;29;20040;-59
2021/03/02 00:48:30;;;;;;;53.70;21.37;;;;;;;-147.27;100.00;65176.34;4935400;29;20042;-60
2021/03/02 00:50:56;;;;;;;60.05;22.33;;;;;;;-147.27;100.00;65176.34;4937083;29;20082;-60
2021/03/02 00:53:21;;;;;;;52.03;20.83;;;;;;;-147.27;100.00;65176.34;4934381;29;20456;-59
2021/03/02 00:55:48;;;;;;;55.28;21.65;;;;;;;-147.27;100.00;65176.34;4935663;29;20322;-59
2021/03/02 00:58:13;;;;;;;48.88;19.17;;;;;;;-147.27;100.00;65176.34;4936030;29;20523;-59
2021/03/02 01:00:39;;;;;;;53.60;20.70;;;;;;;-147.27;100.00;65176.34;4936902;29;20126;-61
2021/03/02 01:03:08;;;;;;;63.83;20.92;;;;;;;-147.27;100.00;65176.34;4934872;29;20491;-59
2021/03/02 01:05:37;;;;;;;58.47;21.85;;;;;;;-147.27;100.00;65176.34;4935400;29;20043;-59
2021/03/02 01:08:06;;;;;;;53.03;21.50;;;;;;;-147.27;100.00;65176.34;4934831;29;20047;-59
2021/03/02 01:10:36;;;;;;;59.30;22.42;;;;;;;-147.27;100.00;65176.34;4920391;29;20051;-59
2021/03/02 01:13:02;;;;;;;48.67;21.73;;;;;;;-147.27;100.00;65176.34;4934944;29;20056;-58
2021/03/02 01:15:27;;;;;;;58.40;21.53;;;;;;;-147.27;100.00;65176.34;4935478;29;20038;-58
2021/03/02 01:17:53;;;;;;;57.13;21.97;;;;;;;-147.27;100.00;65176.34;4936596;29;20277;-58
2021/03/02 01:20:19;;;;;;;55.83;21.00;;;;;;;-147.27;100.00;65176.34;4935731;29;20126;-59
2021/03/02 01:22:44;;;;;;;47.73;17.20;;;;;;;-147.27;100.00;65176.34;4935366;29;20035;-59
2021/03/02 01:25:10;;;;;;;62.83;22.60;;;;;;;-147.27;100.00;65176.34;4935776;29;20064;-59
2021/03/02 01:27:36;;;;;;;59.78;23.23;;;;;;;-147.27;100.00;65176.34;4935152;29;20464;-60
2021/03/02 01:30:08;;;;;;;56.92;22.08;;;;;;;-147.27;100.00;65176.34;4936480;29;20071;-59
2021/03/02 01:32:34;;;;;;;58.10;22.40;;;;;;;-147.27;100.00;65176.34;4936209;29;20044;-59
2021/03/02 01:34:59;;;;;;;56.73;21.20;;;;;;;-147.27;100.00;65176.34;4934803;29;20028;-58
2021/03/02 01:37:24;;;;;;;62.30;23.23;;;;;;;-147.27;100.00;65176.34;4918581;29;20488;-59
2021/03/02 01:39:50;;;;;;;62.37;23.33;;;;;;;-147.27;100.00;65176.34;4934823;29;20464;-59
2021/03/02 01:42:15;;;;;;;57.37;21.73;;;;;;;-147.27;100.00;65176.34;4935729;29;20070;-59
2021/03/02 01:44:41;;;;;;;55.43;23.93;;;;;;;-147.27;100.00;65176.34;4936349;29;20050;-59
2021/03/02 01:47:07;;;;;;;59.03;21.60;;;;;;;-147.27;100.00;65176.34;4935291;29;20123;-59
2021/03/02 01:49:33;;;;;;;65.13;23.40;;;;;;;-147.27;100.00;65176.34;4936130;29;20195;-59
2021/03/02 01:51:59;;;;;;;61.20;22.60;;;;;;;-147.27;100.00;65176.34;4919051;29;20098;-59
2021/03/02 01:54:24;;;;;;;56.97;23.00;;;;;;;-147.27;100.00;65176.34;4935567;29;20771;-59
2021/03/02 01:56:50;;;;;;;67.10;23.83;;;;;;;-147.27;100.00;65176.34;4934541;29;20040;-60
2021/03/02 01:59:17;;;;;;;59.37;23.07;;;;;;;-147.27;100.00;65176.34;4934242;29;20396;-58
2021/03/02 02:01:42;;;;;;;65.57;22.65;;;;;;;-147.27;100.00;65176.34;4935715;29;20455;-58
2021/03/02 02:04:26;;;;;;;61.38;24.38;;;;;;;-147.27;100.00;65176.34;4935194;29;20075;-63
2021/03/02 02:07:01;;;;;;;56.30;20.98;;;;;;;-147.27;100.00;65176.34;4933605;29;20119;-60
2021/03/02 02:09:48;;;;;;;55.60;23.98;;;;;;;-147.27;100.00;65176.34;4935041;29;20764;-59
2021/03/02 02:12:29;;;;;;;69.63;25.20;;;;;;;-147.27;100.00;65176.34;4935284;29;20495;-59
2021/03/02 02:15:01;;;;;;;66.75;23.33;;;;;;;-147.27;100.00;65176.34;4935442;29;20497;-59
2021/03/02 02:17:37;;;;;;;64.50;23.13;;;;;;;-147.27;100.00;65176.34;4934778;29;20566;-59
2021/03/02 02:20:06;;;;;;;57.17;22.73;;;;;;;-147.27;100.00;65176.34;4934204;29;20046;-59
2021/03/02 02:23:09;;;;;;;58.13;22.60;;;;;;;-147.27;100.00;65176.34;4934793;29;20028;-60
2021/03/02 02:25:44;;;;;;;60.75;22.73;;;;;;;-147.27;100.00;65176.34;4935515;29;20057;-59
2021/03/02 02:28:11;;;;;;;66.45;24.33;;;;;;;-147.27;100.00;65176.34;4917495;29;20074;-58
2021/03/02 02:30:43;;;;;;;67.45;24.70;;;;;;;-147.27;100.00;65176.34;4935419;29;20036;-59
2021/03/02 02:33:12;;;;;;;63.60;23.42;;;;;;;-147.27;100.00;65176.34;4933704;29;20440;-57
2021/03/02 02:35:40;;;;;;;58.40;22.48;;;;;;;-147.27;100.00;65176.34;4934965;29;20036;-59
2021/03/02 02:38:09;;;;;;;63.80;25.50;;;;;;;-147.27;100.00;65176.34;4933984;29;20036;-59
2021/03/02 02:40:37;;;;;;;63.70;24.42;;;;;;;-147.27;100.00;65176.34;4934807;29;20032;-60
2021/03/02 02:43:03;;;;;;;61.20;24.20;;;;;;;-147.27;100.00;65176.34;4934830;29;20039;-60
2021/03/02 02:45:29;;;;;;;;;;;;;;;-147.27;100.00;65176.34;4934494;29;20349;-60
2021/03/02 02:47:56;;;;;;;61.20;21.23;;;;;;;-147.27;100.00;65176.34;4935050;29;19915;-59
2021/03/02 02:50:21;;;;;;;;;;;;;;;-147.27;100.00;65176.34;4934485;29;20054;-59
2021/03/02 02:52:47;;;;;;;67.20;23.13;;;;;;;-147.27;100.00;65176.34;4934963;29;19914;-59
2021/03/02 02:55:16;;;;;;;63.63;22.10;;;;;;;-147.27;100.00;65176.34;4933097;29;20049;-59
2021/03/02 02:57:46;;;;;;;58.60;22.50;;;;;;;-147.27;100.00;65176.34;4934770;29;20040;-59
2021/03/02 03:00:13;;;;;;;65.70;22.00;;;;;;;-147.27;100.00;65176.34;4933030;29;20054;-59
2021/03/02 03:02:43;;;;;;;60.43;22.70;;;;;;;-147.27;100.00;65176.34;4934756;29;20511;-59
2021/03/02 03:05:16;;;;;;;59.63;22.05;;;;;;;-147.27;100.00;65176.34;4934745;29;20119;-59
2021/03/02 03:07:51;;;;;;;72.13;23.52;;;;;;;-147.27;100.00;65176.34;4934933;29;20044;-58
2021/03/02 03:10:16;;;;;;;61.67;21.75;;;;;;;-147.27;100.00;65176.34;4933806;29;20126;-60
2021/03/02 03:12:47;;;;;;;56.27;22.80;;;;;;;-147.27;100.00;65176.34;4934650;29;20072;-59
2021/03/02 03:15:16;;;;;;;59.35;22.10;;;;;;;-147.27;100.00;65176.34;4934392;29;20059;-58
2021/03/02 03:17:45;;;;;;;63.55;23.70;;;;;;;-147.27;100.00;65176.34;4934324;29;20063;-60
2021/03/02 03:20:12;;;;;;;61.75;22.85;;;;;;;-147.27;100.00;65176.34;4934653;29;20039;-59
2021/03/02 03:22:39;;;;;;;65.65;22.25;;;;;;;-147.27;100.00;65176.34;4933675;29;20127;-59
2021/03/02 03:25:08;;;;;;;68.70;24.55;;;;;;;-147.27;100.00;65176.34;4933236;29;20135;-59
2021/03/02 03:27:38;;;;;;;60.28;22.75;;;;;;;-147.27;100.00;65176.34;4933827;29;20432;-60
2021/03/02 03:30:05;;;;;;;59.97;22.95;;;;;;;-147.27;100.00;65176.34;4934536;29;20137;-59
2021/03/02 03:32:32;;;;;;;64.07;23.67;;;;;;;-147.27;100.00;65176.34;4933667;29;20067;-58
2021/03/02 03:35:00;;;;;;;61.65;22.80;;;;;;;-147.27;100.00;65176.34;4934073;29;20067;-59
2021/03/02 03:37:25;;;;;;;75.18;25.63;;;;;;;-147.27;100.00;65176.34;4933732;29;20044;-59
2021/03/02 03:39:51;;;;;;;62.30;23.63;;;;;;;-147.27;100.00;65176.34;4934701;29;20503;-58
2021/03/02 03:42:16;;;;;;;61.87;24.83;;;;;;;-147.27;100.00;65176.34;4932511;29;20040;-59
2021/03/02 03:44:42;;;;;;;57.95;21.90;;;;;;;-147.27;100.00;65176.34;4932895;29;20531;-59
2021/03/02 03:47:08;;;;;;;67.83;24.80;;;;;;;-147.27;100.00;65176.34;4934144;29;20054;-59
2021/03/02 03:49:33;;;;;;;62.90;24.40;;;;;;;-147.27;100.00;65176.34;4933856;29;20528;-59
2021/03/02 03:52:01;;;;;;;64.07;24.40;;;;;;;-147.27;100.00;65176.34;4932836;29;20047;-59
2021/03/02 03:54:28;;;;;;;71.60;25.42;;;;;;;-147.27;100.00;65176.34;4933605;29;20058;-59
2021/03/02 03:56:54;;;;;;;70.78;25.63;;;;;;;-147.27;100.00;65176.34;4933046;29;20063;-60
2021/03/02 03:59:23;;;;;;;62.92;24.25;;;;;;;-147.27;100.00;65176.34;4933620;29;20082;-59
2021/03/02 04:01:49;;;;;;;69.45;25.10;;;;;;;-147.27;100.00;65176.34;4934379;29;20056;-58
2021/03/02 04:04:15;;;;;;;73.70;25.92;;;;;;;-147.27;100.00;65176.34;4933847;29;20102;-59
2021/03/02 04:06:41;;;;;;;78.97;27.58;;;;;;;-147.27;100.00;65176.34;4932071;29;20469;-58
2021/03/02 04:09:07;;;;;;;74.63;27.25;;;;;;;-147.27;100.00;65176.34;4932643;29;20051;-59
2021/03/02 04:11:35;;;;;;;70.47;24.50;;;;;;;-147.27;100.00;65176.34;4932131;29;20485;-59
2021/03/02 04:14:02;;;;;;;62.72;23.60;;;;;;;-147.27;100.00;65176.34;4933913;29;20091;-59
2021/03/02 04:16:27;;;;;;;71.75;26.77;;;;;;;-147.27;100.00;65176.34;4916391;29;20040;-59
2021/03/02 04:18:53;;;;;;;69.23;25.83;;;;;;;-147.27;100.00;65176.34;4933921;29;20044;-58
2021/03/02 04:21:19;;;;;;;71.67;25.27;;;;;;;-147.27;100.00;65176.34;4932759;29;20075;-59
2021/03/02 04:23:44;;;;;;;66.72;24.23;;;;;;;-147.27;100.00;65176.34;4933747;29;20380;-61
2021/03/02 04:26:10;;;;;;;77.87;26.63;;;;;;;-147.27;100.00;65176.34;4933880;29;20142;-59
2021/03/02 04:28:35;;;;;;;68.70;24.30;;;;;;;-147.27;100.00;65176.34;4933548;29;20439;-58
2021/03/02 04:31:01;;;;;;;73.05;27.42;;;;;;;-147.27;100.00;65176.34;4936147;29;20464;-59
2021/03/02 04:33:27;;;;;;;71.82;24.80;;;;;;;-147.27;100.00;65176.34;4936832;29;20098;-58
2021/03/02 04:35:53;;;;;;;76.23;28.77;;;;;;;-147.27;100.00;65176.34;4937011;29;20084;-60
2021/03/02 04:38:18;;;;;;;70.00;25.25;;;;;;;-147.27;100.00;65176.34;4937076;29;20036;-59
2021/03/02 04:40:44;;;;;;;69.77;27.03;;;;;;;-147.27;100.00;65176.34;4936676;29;20043;-58
2021/03/02 04:43:09;;;;;;;69.40;26.37;;;;;;;-147.27;100.00;65176.34;4936071;29;20043;-59
2021/03/02 04:45:34;;;;;;;76.00;27.53;;;;;;;-147.27;100.00;65176.34;4936528;29;20491;-59
2021/03/02 04:48:00;;;;;;;77.23;26.73;;;;;;;-147.27;100.00;65176.34;4935644;29;20047;-60
2021/03/02 04:50:25;;;;;;;72.10;28.37;;;;;;;-147.27;100.00;65176.34;4936394;29;20070;-58
2021/03/02 04:52:51;;;;;;;79.53;28.37;;;;;;;-147.27;100.00;65176.34;4935805;29;20393;-59
2021/03/02 04:55:16;;;;;;;80.83;29.37;;;;;;;-147.27;100.00;65176.34;4936918;29;20052;-59
2021/03/02 04:57:42;;;;;;;84.10;27.93;;;;;;;-147.27;100.00;65176.34;4919396;29;20740;-59
2021/03/02 05:00:10;;;;;;;82.63;28.27;;;;;;;-147.27;100.00;65176.34;4936648;29;20044;-60
2021/03/02 05:02:35;;;;;;;77.38;27.27;;;;;;;-147.27;100.00;65176.34;4936131;29;20396;-59
2021/03/02 05:05:01;;;;;;;71.70;27.33;;;;;;;-147.27;100.00;65176.34;4936661;29;20039;-59
2021/03/02 05:07:27;;;;;;;54.10;21.90;;;;;;;-147.27;100.00;65176.34;4935820;29;20286;-59
2021/03/02 05:09:52;;;;;;;75.30;26.33;;;;;;;-147.27;100.00;65176.34;4937000;29;20043;-60
2021/03/02 05:12:17;;;;;;;83.83;27.77;;;;;;;-147.27;100.00;65176.34;4935152;29;20318;-60
2021/03/02 05:14:43;;;;;;;89.80;29.27;;;;;;;-147.27;100.00;65176.34;4934707;29;20131;-60
2021/03/02 05:17:08;;;;;;;76.03;26.13;;;;;;;-147.27;100.00;65176.34;4935457;29;20130;-60
2021/03/02 05:19:34;;;;;;;72.53;28.03;;;;;;;-147.27;100.00;65176.34;4935536;29;20052;-59
2021/03/02 05:21:59;;;;;;;75.10;27.87;;;;;;;-147.27;100.00;65176.34;4935231;29;20385;-59
2021/03/02 05:24:25;;;;;;;71.17;25.47;;;;;;;-147.27;100.00;65176.34;4936012;29;20030;-58
2021/03/02 05:26:51;;;;;;;76.95;25.27;;;;;;;-147.27;100.00;65176.34;4936502;29;20290;-59
2021/03/02 05:29:17;;;;;;;83.47;29.45;;;;;;;-147.27;100.00;65176.34;4936275;29;20484;-59
2021/03/02 05:31:43;;;;;;;60.53;21.45;;;;;;;-147.27;100.00;65176.34;4935676;29;20048;-59
2021/03/02 05:34:08;;;;;;;75.20;27.40;;;;;;;-147.27;100.00;65176.34;4934822;29;20103;-61
2021/03/02 05:36:34;;;;;;;67.57;25.27;;;;;;;-147.27;100.00;65176.34;4935513;29;20040;-59
2021/03/02 05:38:59;;;;;;;69.83;24.63;;;;;;;-147.27;100.00;65176.34;4936236;29;20102;-59
2021/03/02 05:41:26;;;;;;;72.47;26.40;;;;;;;-147.27;100.00;65176.34;4936040;29;20484;-59
2021/03/02 05:43:51;;;;;;;74.57;27.00;;;;;;;-147.27;100.00;65176.34;4935996;29;20262;-58
2021/03/02 05:46:21;;;;;;;66.30;25.90;;;;;;;-147.27;100.00;65176.34;4934800;29;20406;-60
2021/03/02 05:48:47;;;;;;;76.38;27.63;;;;;;;-147.27;100.00;65176.34;4935323;29;20062;-59
2021/03/02 05:51:14;;;;;;;68.68;25.98;;;;;;;-147.27;100.00;65176.34;4936158;29;20519;-59
2021/03/02 05:53:39;;;;;;;84.47;30.50;;;;;;;-147.27;100.00;65176.34;4935609;29;20043;-59
2021/03/02 05:56:07;;;;;;;70.23;26.73;;;;;;;-147.27;100.00;65176.34;4936061;29;20046;-59
2021/03/02 05:58:33;;;;;;;72.20;26.50;;;;;;;-147.27;100.00;65176.34;4934121;29;20079;-59
2021/03/02 06:00:59;;;;;;;78.93;25.65;;;;;;;-147.27;100.00;65176.34;4935829;29;20055;-59
2021/03/02 06:03:25;;;;;;;72.05;27.85;;;;;;;-147.27;100.00;65176.34;4936007;29;20139;-59
2021/03/02 06:05:50;;;;;;;73.87;27.33;;;;;;;-147.27;100.00;65176.34;4932222;29;20040;-60
2021/03/02 06:08:16;;;;;;;72.47;26.73;;;;;;;-147.27;100.00;65176.34;4935413;29;20369;-59
2021/03/02 06:10:41;;;;;;;69.43;26.73;;;;;;;-147.27;100.00;65176.34;4933808;29;20039;-59
2021/03/02 06:13:07;;;;;;;70.77;25.03;;;;;;;-147.27;100.00;65176.34;4918457;29;20048;-59
2021/03/02 06:15:32;;;;;;;68.47;24.60;;;;;;;-147.27;100.00;65176.34;4935022;29;20039;-60
2021/03/02 06:18:12;;;;;;;73.35;24.50;;;;;;;-147.27;100.00;65176.34;4935198;29;20485;-59
2021/03/02 06:20:39;;;;;;;72.65;25.20;;;;;;;-147.27;100.00;65176.34;4934848;29;20168;-59
2021/03/02 06:23:20;;;;;;;64.90;24.88;;;;;;;-147.27;100.00;65176.34;4928208;29;20076;-60
2021/03/02 06:25:47;;;;;;;72.15;25.80;;;;;;;-147.27;100.00;65176.34;4915628;29;20088;-59
2021/03/02 06:28:13;;;;;;;70.05;24.98;;;;;;;-147.27;100.00;65176.34;4916187;29;20040;-59
2021/03/02 06:30:38;;;;;;;72.60;26.63;;;;;;;-147.27;100.00;65176.34;4915384;29;20048;-59
2021/03/02 06:33:04;;;;;;;76.70;26.87;;;;;;;-147.27;100.00;65176.34;4916359;29;20452;-60
2021/03/02 06:35:33;;;;;;;71.50;24.55;;;;;;;-147.27;100.00;65176.34;4915053;29;20481;-60
2021/03/02 06:37:59;;;;;;;66.15;26.48;;;;;;;-147.27;100.00;65176.34;4916173;29;20401;-60
2021/03/02 06:40:43;;;;;;;77.43;27.15;;;;;;;-147.27;100.00;65176.34;4916368;29;20066;-59
2021/03/02 06:43:28;;;;;;;66.30;25.80;;;;;;;-147.27;100.00;65176.34;4915855;29;20036;-59
2021/03/02 06:45:54;;;;;;;74.60;24.17;;;;;;;-147.27;100.00;65176.34;4916924;29;20139;-60
2021/03/02 06:48:20;;;;;;;70.32;26.73;;;;;;;-147.27;100.00;65176.34;4916062;29;20167;-59
2021/03/02 06:50:45;;;;;;;71.90;26.47;;;;;;;-147.27;100.00;65176.34;4915694;29;20122;-59
2021/03/02 06:53:12;;;;;;;71.18;27.42;;;;;;;-147.27;100.00;65176.34;4914543;29;20028;-61
2021/03/02 06:55:39;;;;;;;76.63;27.10;;;;;;;-147.27;100.00;65176.34;4916606;29;20044;-58
2021/03/02 06:58:16;;;;;;;66.90;27.60;;;;;;;-147.27;100.00;65176.34;4918398;29;20044;-59
2021/03/02 07:00:47;;;;;;;76.10;26.67;;;;;;;-147.27;100.00;65176.34;4916239;29;20035;-58
2021/03/02 07:03:22;;;;;;;76.10;25.88;;;;;;;-147.27;100.00;65176.34;4931174;29;20541;-59
2021/03/02 07:05:47;;;;;;;69.72;26.75;;;;;;;-147.27;100.00;65176.34;4929780;29;20071;-59
2021/03/02 07:08:13;;;;;;;63.35;25.35;;;;;;;-147.27;100.00;65176.34;4917591;29;20162;-59
2021/03/02 07:10:39;;;;;;;73.37;23.23;;;;;;;-147.27;100.00;65176.34;4917502;29;20036;-59
2021/03/02 07:13:05;;;;;;;66.13;24.17;;;;;;;-147.27;100.00;65176.34;4917948;29;20342;-59
2021/03/02 07:15:31;;;;;;;66.15;24.75;;;;;;;-147.27;100.00;65176.34;4918024;29;20484;-58
2021/03/02 07:17:56;;;;;;;70.32;25.73;;;;;;;-147.27;100.00;65176.34;4917476;29;20063;-59
2021/03/02 07:20:24;;;;;;;68.03;24.50;;;;;;;-147.27;100.00;65176.34;4918060;29;20052;-59
2021/03/02 07:22:52;;;;;;;59.78;23.80;;;;;;;-147.27;100.00;65176.34;4931363;29;20063;-59
2021/03/02 07:25:19;;;;;;;91.82;25.48;;;;;;;-147.27;100.00;65176.34;4932947;29;20046;-60
2021/03/02 07:27:48;;;;;;;60.47;23.30;;;;;;;-147.27;100.00;65176.34;4917466;29;20040;-59
2021/03/02 07:30:15;;;;;;;66.90;25.25;;;;;;;-147.27;100.00;65176.34;4915475;29;20088;-63
2021/03/02 07:32:42;;;;;;;52.40;21.95;;;;;;;-147.27;100.00;65176.34;4918643;29;20046;-63
2021/03/02 07:35:10;;;;;;;57.83;24.33;;;;;;;-147.27;100.00;65176.34;4898756;29;20051;-60
2021/03/02 07:37:36;;;;;;;54.55;23.40;;;;;;;-147.27;100.00;65176.34;4919946;29;20044;-60
2021/03/02 07:40:14;;;;;;;61.53;23.30;;;;;;;-147.27;100.00;65176.34;4914839;29;20119;-59
2021/03/02 07:42:40;;;;;;;64.45;23.83;;;;;;;-147.27;100.00;65176.34;4932084;29;20044;-58
2021/03/02 07:45:13;;;;;;;60.13;24.42;;;;;;;-147.27;100.00;65176.34;4931899;29;20066;-59
2021/03/02 07:47:45;;;;;;;61.05;24.85;;;;;;;-147.27;100.00;65176.34;4914772;29;20548;-59
2021/03/02 07:50:15;;;;;;;54.80;23.10;;;;;;;-147.27;100.00;65176.34;4919792;29;20039;-58
2021/03/02 07:52:40;;;;;;;48.25;20.67;;;;;;;-147.27;100.00;65176.34;4928801;29;20040;-58
2021/03/02 07:55:20;;;;;;;57.03;21.87;;;;;;;-147.27;100.00;65176.34;4932463;29;20040;-58
2021/03/02 07:57:46;;;;;;;56.75;23.83;;;;;;;-147.27;100.00;65176.34;4932130;29;20090;-59
2021/03/02 08:00:14;;;;;;;49.78;20.08;;;;;;;-147.27;100.00;65176.34;4934205;29;20047;-58
2021/03/02 08:02:40;;;;;;;59.65;23.77;;;;;;;-147.27;100.00;65176.34;4932486;29;20103;-57
2021/03/02 08:05:41;;;;;;;60.28;24.20;;;;;;;-147.27;100.00;65176.34;4935709;29;20044;-59
2021/03/02 08:08:24;;;;;;;54.75;22.92;;;;;;;-147.27;100.00;65176.34;4881807;29;20052;-60
2021/03/02 08:10:54;;;;;;;52.95;23.63;;;;;;;-147.27;100.00;65176.34;4932867;29;20056;-59
2021/03/02 08:13:37;;;;;;;59.33;24.13;;;;;;;-147.27;100.00;65176.34;4937474;29;20051;-60
2021/03/02 08:16:08;;;;;;;51.83;21.40;;;;;;;-147.27;100.00;65176.34;4935453;29;20492;-58
2021/03/02 08:18:43;;;;;;;54.78;23.60;;;;;;;-147.27;100.00;65176.34;4937213;29;20087;-60
2021/03/02 08:21:15;;;;;;;54.70;24.25;;;;;;;-147.27;100.00;65176.34;4936412;29;20047;-59
2021/03/02 08:23:50;;;;;;;50.17;22.38;;;;;;;-147.27;100.00;65176.34;4935972;29;20041;-59
2021/03/02 08:26:30;;;;;;;53.63;23.88;;;;;;;-147.27;100.00;65176.34;4935841;29;20147;-59
2021/03/02 08:29:17;;;;;;;52.97;23.13;;;;;;;-147.27;100.00;65176.34;4936628;29;20047;-58
2021/03/02 08:31:48;;;;;;;57.45;23.35;;;;;;;-147.27;100.00;65176.34;4936391;29;20051;-58
2021/03/02 08:34:16;;;;;;;52.40;21.67;;;;;;;-147.27;100.00;65176.34;4936626;29;20479;-59
2021/03/02 08:36:42;;;;;;;46.78;20.33;;;;;;;-147.27;100.00;65176.34;4936801;29;20126;-58
2021/03/02 08:39:16;;;;;;;44.10;19.13;;;;;;;-147.27;100.00;65176.34;4935817;29;20448;-60
2021/03/02 08:41:44;;;;;;;40.58;18.60;;;;;;;-147.27;100.00;65176.34;4936882;29;20044;-59
2021/03/02 08:44:24;;;;;;;43.47;18.85;;;;;;;-147.27;100.00;65176.34;4936731;29;20082;-59
2021/03/02 08:46:51;;;;;;;41.30;17.60;;;;;;;-147.27;100.00;65176.34;4935755;29;20051;-59
2021/03/02 08:49:17;;;;;;;40.80;18.23;;;;;;;-147.27;100.00;65176.34;4936376;29;20075;-59
2021/03/02 08:51:43;;;;;;;38.92;17.42;;;;;;;-147.27;100.00;65176.34;4919135;29;20430;-58
2021/03/02 08:54:08;;;;;;;40.17;17.40;;;;;;;-147.27;100.00;65176.34;4936541;29;20075;-59
2021/03/02 08:56:34;;;;;;;38.67;16.70;;;;;;;-147.27;100.00;65176.34;4934780;29;20603;-58
2021/03/02 08:59:04;;;;;;;37.67;16.47;;;;;;;-147.27;100.00;65176.34;4935952;29;20261;-59
2021/03/02 09:01:33;;;;;;;31.50;15.68;;;;;;;-147.27;100.00;65176.34;4935898;29;20039;-59
2021/03/02 09:04:08;;;;;;;32.90;15.00;;;;;;;-147.27;100.00;65176.34;4935281;29;20130;-59
2021/03/02 09:06:34;;;;;;;28.13;15.15;;;;;;;-147.27;100.00;65176.34;4934753;29;20062;-58
2021/03/02 09:09:08;;;;;;;31.70;15.20;;;;;;;-147.27;100.00;65176.34;4924503;29;20087;-59
2021/03/02 09:11:35;;;;;;;26.27;13.47;;;;;;;-147.27;100.00;65176.34;4927112;29;20105;-58
2021/03/02 09:14:10;;;;;;;25.93;13.43;;;;;;;-147.27;100.00;65176.34;4926662;29;20373;-60
2021/03/02 09:16:38;;;;;;;26.53;12.70;;;;;;;-147.27;100.00;65176.34;4948077;29;20713;-59
2021/03/02 09:19:16;;;;;;;26.43;13.60;;;;;;;-147.27;100.00;65176.34;4925487;29;20286;-59
2021/03/02 09:21:53;;;;;;;26.60;12.43;;;;;;;-147.27;100.00;65176.34;4917407;29;20297;-59
2021/03/02 09:24:21;;;;;;;23.20;11.93;;;;;;;-147.27;100.00;65176.34;4927236;29;20675;-58
2021/03/02 09:26:51;;;;;;;21.80;11.93;;;;;;;-147.27;100.00;65176.34;4926167;29;20269;-58
2021/03/02 09:29:17;;;;;;;22.10;11.17;;;;;;;-147.27;100.00;65176.34;4924665;29;20290;-59
2021/03/02 09:31:43;;;;;;;19.83;10.88;;;;;;;-147.27;100.00;65176.34;4924090;29;20281;-58
2021/03/02 09:34:09;;;;;;;19.77;11.35;;;;;;;-147.27;100.00;65176.34;4924585;29;20071;-58
2021/03/02 09:36:34;;;;;;;22.55;11.35;;;;;;;-147.27;100.00;65176.34;4908279;29;20087;-59
2021/03/02 09:39:17;;;;;;;20.42;11.07;;;;;;;-147.27;100.00;65176.34;4923915;29;20103;-58
2021/03/02 09:41:43;;;;;;;21.17;11.43;;;;;;;-147.27;100.00;65176.34;4923549;29;20040;-58
2021/03/02 09:44:15;;;;;;;19.58;10.65;;;;;;;-147.27;100.00;65176.34;4925261;29;20095;-60
2021/03/02 09:46:41;;;;;;;19.43;10.23;;;;;;;-147.27;100.00;65176.34;4926393;29;20449;-58
2021/03/02 09:49:06;;;;;;;17.83;10.85;;;;;;;-147.27;100.00;65176.34;4923020;29;20111;-59
2021/03/02 09:51:33;;;;;;;22.02;10.82;;;;;;;-147.27;100.00;65176.34;4926851;29;20040;-59
2021/03/02 09:54:16;;;;;;;20.33;10.50;;;;;;;-147.27;100.00;65176.34;4923895;29;20032;-59
2021/03/02 09:56:46;;;;;;;21.83;11.00;;;;;;;-147.27;100.00;65176.34;4947154;29;20114;-57
2021/03/02 09:59:22;;;;;;;16.63;9.77;;;;;;;-147.27;100.00;65176.34;4927582;29;20072;-58
2021/03/02 10:01:48;;;;;;;19.08;10.23;;;;;;;-147.27;100.00;65176.34;4926153;29;20476;-57
2021/03/02 10:04:14;;;;;;;22.73;9.73;;;;;;;-147.27;100.00;65176.34;4917455;29;20059;-57
2021/03/02 10:06:40;;;;;;;17.30;9.80;;;;;;;-147.27;100.00;65176.34;4916355;29;20035;-58
2021/03/02 10:09:18;;;;;;;18.73;10.32;;;;;;;-147.27;100.00;65176.34;4915948;29;20470;-59
2021/03/02 10:11:43;;;;;;;17.07;8.97;;;;;;;-147.27;100.00;65176.34;4907868;29;20131;-59
2021/03/02 10:14:10;;;;;;;17.77;9.60;;;;;;;-147.27;100.00;65176.34;4934443;29;20042;-59
2021/03/02 10:16:38;;;;;;;;;;;;;;;-147.27;100.00;65176.34;4934503;29;20403;-58
2021/03/02 10:19:23;;;;;;;16.37;8.67;;;;;;;-147.27;100.00;65176.34;4933011;29;20057;-59
2021/03/02 10:21:56;;;;;;;16.23;8.37;;;;;;;-147.27;100.00;65176.34;4934826;29;20039;-57
2021/03/02 10:24:25;;;;;;;15.07;9.00;;;;;;;-147.27;100.00;65176.34;4935237;29;20048;-59
2021/03/02 10:26:53;;;;;;;16.73;8.37;;;;;;;-147.27;100.00;65176.34;4932853;29;20114;-58
2021/03/02 10:29:19;;;;;;;17.53;8.83;;;;;;;-147.27;100.00;65176.34;4935050;29;20108;-58
2021/03/02 10:31:44;;;;;;;12.68;7.78;;;;;;;-147.27;100.00;65176.34;4932185;29;20396;-58
2021/03/02 10:34:11;;;;;;;17.60;8.70;;;;;;;-147.27;100.00;65176.34;4915422;29;20630;-59
2021/03/02 10:36:41;;;;;;;15.50;9.03;;;;;;;-147.27;100.00;65176.34;4925646;29;20123;-59
2021/03/02 10:39:12;;;;;;;15.67;9.10;;;;;;;-147.27;100.00;65176.34;4921629;29;20087;-58
2021/03/02 10:41:38;;;;;;;14.97;8.80;;;;;;;-147.27;100.00;65176.34;4918129;29;20036;-59
2021/03/02 10:44:04;;;;;;;;;;;;;;;-147.27;100.00;65176.34;4934690;29;20030;-59
2021/03/02 10:46:30;;;;;;;14.53;8.37;;;;;;;-147.27;100.00;65176.34;4933496;29;19915;-59
2021/03/02 10:48:57;;;;;;;19.60;8.90;;;;;;;-147.27;100.00;65176.34;4933801;29;20032;-59
2021/03/02 10:51:22;;;;;;;;;;;;;;;-147.27;100.00;65176.34;4934876;29;20023;-59
2021/03/02 10:53:48;;;;;;;18.30;8.17;;;;;;;-147.27;100.00;65176.34;4926070;29;19911;-57
2021/03/02 10:56:15;;;;;;;23.57;10.00;;;;;;;-147.27;100.00;65176.34;4932407;29;20127;-59
2021/03/02 10:58:41;;;;;;;17.57;8.60;;;;;;;-147.27;100.00;65176.34;4933982;29;20047;-59
2021/03/02 11:01:07;;;;;;;13.13;8.17;;;;;;;-147.27;100.00;65176.34;4934411;29;20162;-58
2021/03/02 11:03:32;;;;;;;;;;;;;;;-147.27;100.00;65176.34;4918830;29;20185;-59